createdAt,value
2023-10-13T00:00:30.852Z,17.50
2023-10-13T00:03:01.254Z,17.60
2023-10-13T00:05:31.865Z,17.60
2023-10-13T00:08:03.867Z,17.60
2023-10-13T00:10:31.585Z,17.60
2023-10-13T00:13:13.933Z,17.60
2023-10-13T00:15:58.719Z,17.60
2023-10-13T00:18:28.593Z,17.60
2023-10-13T00:20:57.564Z,17.60
2023-10-13T00:23:27.857Z,17.70
2023-10-13T00:26:03.342Z,17.70
2023-10-13T00:28:37.096Z,17.70
2023-10-13T00:31:11.723Z,17.70
2023-10-13T00:33:43.061Z,17.70
2023-10-13T00:36:18.240Z,17.70
2023-10-13T00:38:49.182Z,17.70
2023-10-13T00:41:17.879Z,17.70
2023-10-13T00:44:08.374Z,17.70
2023-10-13T00:46:37.071Z,17.70
2023-10-13T00:49:05.728Z,17.70
2023-10-13T00:51:33.754Z,17.70
2023-10-13T00:54:03.812Z,17.70
2023-10-13T00:56:33.801Z,17.70
2023-10-13T00:59:03.519Z,17.80
2023-10-13T01:01:34.009Z,17.70
2023-10-13T01:04:01.682Z,17.80
2023-10-13T01:06:29.294Z,17.80
2023-10-13T01:09:14.296Z,17.80
2023-10-13T01:11:44.046Z,17.80
2023-10-13T01:14:18.636Z,17.80
2023-10-13T01:16:46.937Z,17.80
2023-10-13T01:19:18.072Z,17.70
2023-10-13T01:21:48.641Z,17.70
2023-10-13T01:24:19.732Z,17.80
2023-10-13T01:26:52.298Z,17.70
2023-10-13T01:29:20.236Z,17.70
2023-10-13T01:31:48.191Z,17.70
2023-10-13T01:34:23.726Z,17.70
2023-10-13T01:36:54.863Z,17.80
2023-10-13T01:39:27.473Z,17.70
2023-10-13T01:41:57.462Z,17.70
2023-10-13T01:44:31.746Z,17.80
2023-10-13T01:47:08.151Z,17.80
2023-10-13T01:49:44.123Z,17.70
2023-10-13T01:52:16.828Z,17.80
2023-10-13T01:54:50.008Z,17.70
2023-10-13T01:57:20.035Z,17.70
2023-10-13T01:59:48.849Z,17.70
2023-10-13T02:02:17.409Z,17.80
2023-10-13T02:04:50.238Z,17.80
2023-10-13T02:07:17.693Z,17.70
2023-10-13T02:09:44.663Z,17.80
2023-10-13T02:12:12.064Z,17.80
2023-10-13T02:14:39.048Z,17.80
2023-10-13T02:17:14.888Z,17.80
2023-10-13T02:19:45.811Z,17.80
2023-10-13T02:22:13.422Z,17.70
2023-10-13T02:24:41.221Z,17.80
2023-10-13T02:27:14.048Z,17.80
2023-10-13T02:29:41.728Z,17.80
2023-10-13T02:32:19.666Z,17.80
2023-10-13T02:34:46.766Z,17.80
2023-10-13T02:37:19.908Z,17.80
2023-10-13T02:39:46.597Z,17.80
2023-10-13T02:42:25.219Z,17.80
2023-10-13T02:44:52.354Z,17.80
2023-10-13T02:47:20.862Z,17.80
2023-10-13T02:49:48.881Z,17.80
2023-10-13T02:52:16.265Z,17.80
2023-10-13T02:54:52.448Z,17.80
2023-10-13T02:57:19.339Z,17.80
2023-10-13T02:59:51.735Z,17.80
2023-10-13T03:02:19.011Z,17.80
2023-10-13T03:05:00.189Z,17.80
2023-10-13T03:07:30.556Z,17.80
2023-10-13T03:10:01.370Z,17.80
2023-10-13T03:12:34.465Z,17.80
2023-10-13T03:15:33.503Z,17.80
2023-10-13T03:18:00.224Z,17.80
2023-10-13T03:20:32.829Z,17.80
2023-10-13T03:23:00.304Z,17.90
2023-10-13T03:25:30.783Z,17.90
2023-10-13T03:28:01.387Z,17.90
2023-10-13T03:30:43.364Z,17.90
2023-10-13T03:33:13.045Z,17.90
2023-10-13T03:35:42.669Z,17.80
2023-10-13T03:38:19.640Z,17.90
2023-10-13T03:40:50.924Z,17.90
2023-10-13T03:43:22.751Z,17.80
2023-10-13T03:46:01.856Z,17.80
2023-10-13T03:48:28.937Z,17.80
2023-10-13T03:51:16.069Z,17.80
2023-10-13T03:53:57.432Z,17.90
2023-10-13T03:56:32.395Z,17.90
2023-10-13T03:59:26.867Z,17.80
2023-10-13T04:01:53.678Z,17.90
2023-10-13T04:04:49.664Z,17.90
2023-10-13T04:07:35.352Z,17.90
2023-10-13T04:10:22.836Z,17.90
2023-10-13T04:13:09.435Z,17.90
2023-10-13T04:15:42.185Z,17.90
2023-10-13T04:18:28.780Z,17.90
2023-10-13T04:21:08.730Z,17.90
2023-10-13T04:23:55.335Z,17.90
2023-10-13T04:26:37.152Z,17.90
2023-10-13T04:29:11.490Z,17.90
2023-10-13T04:32:01.170Z,17.90
2023-10-13T04:34:29.684Z,17.90
2023-10-13T04:37:12.659Z,17.90
2023-10-13T04:39:40.819Z,17.90
2023-10-13T04:42:27.385Z,17.90
2023-10-13T04:44:59.905Z,17.90
2023-10-13T04:47:30.364Z,17.90
2023-10-13T04:50:01.696Z,17.90
2023-10-13T04:52:39.654Z,17.90
2023-10-13T04:55:38.101Z,18.00
2023-10-13T04:58:23.760Z,18.00
2023-10-13T05:01:16.434Z,18.00
2023-10-13T05:04:01.727Z,18.00
2023-10-13T05:07:00.336Z,18.00
2023-10-13T05:09:45.607Z,18.00
2023-10-13T05:12:31.033Z,18.00
2023-10-13T05:15:16.325Z,18.00
2023-10-13T05:18:01.859Z,18.00
2023-10-13T05:20:47.317Z,18.00
2023-10-13T05:23:32.632Z,18.00
2023-10-13T05:26:21.698Z,18.00
2023-10-13T05:29:15.252Z,18.00
2023-10-13T05:32:11.485Z,18.00
2023-10-13T05:34:56.812Z,18.00
2023-10-13T05:37:42.443Z,18.00
2023-10-13T05:40:28.464Z,18.00
2023-10-13T05:43:13.959Z,18.10
2023-10-13T05:45:59.336Z,18.10
2023-10-13T05:48:43.452Z,18.10
2023-10-13T05:51:28.947Z,18.10
2023-10-13T05:54:14.387Z,18.10
2023-10-13T05:57:04.463Z,18.10
2023-10-13T05:59:51.287Z,18.00
2023-10-13T06:02:38.690Z,18.00
2023-10-13T06:05:25.475Z,18.00
2023-10-13T06:08:11.656Z,18.00
2023-10-13T06:10:57.683Z,18.00
2023-10-13T06:13:43.183Z,18.00
2023-10-13T06:16:30.338Z,18.00
2023-10-13T06:19:15.612Z,18.00
2023-10-13T06:22:01.797Z,18.00
2023-10-13T06:24:47.878Z,18.00
2023-10-13T06:27:33.930Z,18.00
2023-10-13T06:30:01.981Z,18.00
2023-10-13T06:32:28.758Z,18.00
2023-10-13T06:34:59.297Z,18.00
2023-10-13T06:37:27.211Z,18.00
2023-10-13T06:39:57.674Z,18.00
2023-10-13T06:42:28.176Z,18.00
2023-10-13T06:44:55.907Z,18.00
2023-10-13T06:47:25.793Z,18.10
2023-10-13T06:49:52.585Z,18.10
2023-10-13T06:52:19.358Z,18.10
2023-10-13T06:54:47.466Z,18.10
2023-10-13T06:57:21.426Z,18.20
2023-10-13T06:59:48.953Z,18.20
2023-10-13T07:02:34.782Z,18.20
2023-10-13T07:05:09.008Z,18.20
2023-10-13T07:07:37.972Z,18.30
2023-10-13T07:10:08.956Z,18.30
2023-10-13T07:12:35.613Z,18.30
2023-10-13T07:15:21.089Z,18.30
2023-10-13T07:17:48.970Z,18.30
2023-10-13T07:20:16.506Z,18.30
2023-10-13T07:22:56.068Z,18.30
2023-10-13T07:25:26.616Z,18.30
2023-10-13T07:27:55.114Z,18.40
2023-10-13T07:30:27.490Z,18.40
2023-10-13T07:32:55.891Z,18.50
2023-10-13T07:35:25.839Z,18.40
2023-10-13T07:37:56.627Z,18.40
2023-10-13T07:40:26.709Z,18.50
2023-10-13T07:43:01.958Z,18.50
2023-10-13T07:45:37.150Z,18.60
2023-10-13T07:48:28.609Z,18.60
2023-10-13T07:51:06.739Z,18.70
2023-10-13T07:53:36.601Z,18.70
2023-10-13T07:56:06.141Z,18.80
2023-10-13T07:58:33.513Z,18.80
2023-10-13T08:01:09.982Z,18.90
2023-10-13T08:03:46.310Z,18.90
2023-10-13T08:06:21.529Z,18.90
2023-10-13T08:08:54.578Z,18.90
2023-10-13T08:11:24.244Z,19.00
2023-10-13T08:14:04.303Z,19.00
2023-10-13T08:16:46.579Z,19.10
2023-10-13T08:19:18.283Z,19.10
2023-10-13T08:21:58.585Z,19.10
2023-10-13T08:24:38.662Z,19.10
2023-10-13T08:27:34.894Z,19.20
2023-10-13T08:30:02.491Z,19.40
2023-10-13T08:32:30.388Z,19.40
2023-10-13T08:35:11.209Z,19.50
2023-10-13T08:38:06.295Z,19.60
2023-10-13T08:41:05.282Z,19.60
2023-10-13T08:43:45.308Z,19.70
2023-10-13T08:46:26.400Z,19.80
2023-10-13T08:49:09.917Z,20.00
2023-10-13T08:52:06.157Z,20.00
2023-10-13T08:54:39.914Z,20.10
2023-10-13T08:57:27.008Z,20.20
2023-10-13T08:59:56.473Z,20.10
2023-10-13T09:02:44.235Z,20.30
2023-10-13T09:05:32.476Z,20.30
2023-10-13T09:08:09.995Z,20.30
2023-10-13T09:10:45.865Z,20.40
2023-10-13T09:13:20.359Z,20.40
2023-10-13T09:16:02.763Z,20.40
2023-10-13T09:18:48.791Z,20.50
2023-10-13T09:21:55.161Z,20.60
2023-10-13T09:24:30.935Z,20.70
2023-10-13T09:27:02.621Z,20.80
2023-10-13T09:29:30.145Z,20.90
2023-10-13T09:32:05.062Z,20.80
2023-10-13T09:34:41.739Z,21.00
2023-10-13T09:37:12.190Z,21.10
2023-10-13T09:39:42.946Z,21.00
2023-10-13T09:42:11.459Z,21.20
2023-10-13T09:44:41.532Z,21.20
2023-10-13T09:47:18.563Z,21.20
2023-10-13T09:49:46.829Z,21.30
2023-10-13T09:52:26.860Z,21.30
2023-10-13T09:55:04.187Z,21.40
2023-10-13T09:57:35.914Z,21.40
2023-10-13T10:00:30.338Z,21.50
2023-10-13T10:03:05.160Z,21.50
2023-10-13T10:05:35.746Z,21.50
2023-10-13T10:08:03.140Z,21.60
2023-10-13T10:11:01.921Z,21.50
2023-10-13T10:14:25.953Z,21.50
2023-10-13T10:17:10.701Z,21.60
2023-10-13T10:19:57.821Z,21.60
2023-10-13T10:22:48.994Z,21.60
2023-10-13T10:25:28.306Z,21.50
2023-10-13T10:27:59.330Z,21.60
2023-10-13T10:30:30.376Z,21.60
2023-10-13T10:33:01.096Z,21.80
2023-10-13T10:35:30.934Z,21.70
2023-10-13T10:38:12.429Z,21.80
2023-10-13T10:40:53.499Z,21.90
2023-10-13T10:43:32.821Z,22.00
2023-10-13T10:46:00.757Z,22.10
2023-10-13T10:48:32.787Z,22.30
2023-10-13T10:51:07.855Z,22.30
2023-10-13T10:53:44.633Z,22.30
2023-10-13T10:56:25.577Z,22.40
2023-10-13T10:59:01.022Z,22.50
2023-10-13T11:01:50.083Z,22.50
2023-10-13T11:04:20.033Z,22.60
2023-10-13T11:06:49.188Z,22.70
2023-10-13T11:09:27.982Z,22.70
2023-10-13T11:11:58.100Z,22.80
2023-10-13T11:14:26.818Z,22.90
2023-10-13T11:16:55.302Z,23.00
2023-10-13T11:19:35.944Z,22.90
2023-10-13T11:22:52.112Z,23.00
2023-10-13T11:25:30.837Z,23.30
2023-10-13T11:27:59.896Z,23.50
2023-10-13T11:30:42.305Z,23.60
2023-10-13T11:33:11.299Z,24.00
2023-10-13T11:35:50.432Z,24.20
2023-10-13T11:38:26.650Z,24.10
2023-10-13T11:41:06.995Z,24.00
2023-10-13T11:43:37.330Z,23.90
2023-10-13T11:46:09.792Z,23.80
2023-10-13T11:48:39.610Z,23.70
2023-10-13T11:51:08.633Z,23.60
2023-10-13T11:53:38.686Z,23.50
2023-10-13T11:56:12.266Z,23.50
2023-10-13T11:58:41.309Z,23.50
2023-10-13T12:01:13.693Z,23.50
2023-10-13T12:04:03.044Z,23.50
2023-10-13T12:06:56.711Z,23.40
2023-10-13T12:09:23.286Z,23.50
2023-10-13T12:11:55.429Z,23.50
2023-10-13T12:14:37.764Z,23.50
2023-10-13T12:17:06.212Z,23.40
2023-10-13T12:19:35.926Z,23.50
2023-10-13T12:22:05.737Z,23.50
2023-10-13T12:24:41.451Z,23.60
2023-10-13T12:27:20.782Z,23.60
2023-10-13T12:29:48.358Z,23.60
2023-10-13T12:32:15.754Z,23.60
2023-10-13T12:35:00.983Z,23.50
2023-10-13T12:37:41.297Z,23.50
2023-10-13T12:40:28.329Z,23.40
2023-10-13T12:43:14.584Z,23.40
2023-10-13T12:46:01.041Z,23.30
2023-10-13T12:48:48.618Z,23.30
2023-10-13T12:51:25.018Z,23.30
2023-10-13T12:53:53.207Z,23.20
2023-10-13T12:56:27.356Z,23.30
2023-10-13T12:58:55.119Z,23.30
2023-10-13T13:01:23.723Z,23.30
2023-10-13T13:03:51.262Z,23.30
2023-10-13T13:06:30.440Z,23.40
2023-10-13T13:09:00.925Z,23.40
2023-10-13T13:11:31.074Z,23.40
2023-10-13T13:13:58.180Z,23.40
2023-10-13T13:16:25.270Z,23.40
2023-10-13T13:18:52.359Z,23.40
2023-10-13T13:21:24.163Z,23.40
2023-10-13T13:23:51.637Z,23.40
2023-10-13T13:26:18.758Z,23.40
2023-10-13T13:28:46.637Z,23.40
2023-10-13T13:31:13.468Z,23.30
2023-10-13T13:33:43.318Z,23.30
2023-10-13T13:36:17.667Z,23.20
2023-10-13T13:38:47.854Z,23.20
2023-10-13T13:41:17.869Z,23.20
2023-10-13T13:43:51.562Z,23.10
2023-10-13T13:46:19.304Z,23.10
2023-10-13T13:48:49.603Z,23.10
2023-10-13T13:51:16.817Z,23.00
2023-10-13T13:53:46.853Z,23.00
2023-10-13T13:56:17.253Z,22.90
2023-10-13T13:58:45.549Z,22.90
2023-10-13T14:01:22.867Z,22.90
2023-10-13T14:03:57.601Z,22.90
2023-10-13T14:06:26.103Z,22.80
2023-10-13T14:08:57.939Z,22.80
2023-10-13T14:11:41.221Z,22.80
2023-10-13T14:14:27.889Z,22.70
2023-10-13T14:16:54.850Z,22.70
2023-10-13T14:19:30.531Z,22.70
2023-10-13T14:21:58.059Z,22.70
2023-10-13T14:24:28.748Z,22.70
2023-10-13T14:26:56.874Z,22.60
2023-10-13T14:29:27.353Z,22.60
2023-10-13T14:31:54.096Z,22.50
2023-10-13T14:34:23.423Z,22.50
2023-10-13T14:36:50.270Z,22.50
2023-10-13T14:39:16.933Z,22.40
2023-10-13T14:41:43.671Z,22.40
2023-10-13T14:44:13.802Z,22.40
2023-10-13T14:46:41.057Z,22.40
2023-10-13T14:49:08.175Z,22.40
2023-10-13T14:51:40.493Z,22.40
2023-10-13T14:54:07.274Z,22.30
2023-10-13T14:56:33.930Z,22.30
2023-10-13T14:59:00.642Z,22.30
2023-10-13T15:01:28.024Z,22.30
2023-10-13T15:03:59.214Z,22.30
2023-10-13T15:06:30.096Z,22.30
2023-10-13T15:09:00.835Z,22.20
2023-10-13T15:11:44.105Z,22.20
2023-10-13T15:14:15.807Z,22.30
2023-10-13T15:16:44.169Z,22.20
2023-10-13T15:19:11.366Z,22.20
2023-10-13T15:21:38.020Z,22.20
2023-10-13T15:24:24.732Z,22.20
2023-10-13T15:27:02.798Z,22.10
2023-10-13T15:29:36.794Z,22.10
2023-10-13T15:32:04.226Z,22.10
2023-10-13T15:34:31.802Z,22.10
2023-10-13T15:36:59.995Z,22.10
2023-10-13T15:39:30.022Z,22.10
2023-10-13T15:41:59.830Z,22.10
2023-10-13T15:44:30.895Z,22.10
2023-10-13T15:49:31.027Z,22.10
2023-10-13T15:51:58.876Z,22.10
2023-10-13T15:54:25.710Z,22.00
2023-10-13T15:56:52.665Z,22.00
2023-10-13T15:59:19.358Z,22.00
2023-10-13T16:01:47.864Z,21.90
2023-10-13T16:04:15.276Z,22.00
2023-10-13T16:06:43.014Z,22.00
2023-10-13T16:09:15.025Z,21.90
2023-10-13T16:11:43.433Z,21.90
2023-10-13T16:14:11.801Z,21.90
2023-10-13T16:16:38.724Z,21.80
2023-10-13T16:19:06.003Z,21.80
2023-10-13T16:21:34.658Z,21.80
2023-10-13T16:24:01.585Z,21.80
2023-10-13T16:26:31.375Z,21.80
2023-10-13T16:28:59.634Z,21.80
2023-10-13T16:31:28.931Z,21.70
2023-10-13T16:33:56.168Z,21.70
2023-10-13T16:36:25.974Z,21.70
2023-10-13T16:38:52.761Z,21.70
2023-10-13T16:41:19.589Z,21.70
2023-10-13T16:43:46.721Z,21.70
2023-10-13T16:46:14.116Z,21.70
2023-10-13T16:48:40.974Z,21.60
2023-10-13T16:51:13.893Z,21.60
2023-10-13T16:53:43.320Z,21.50
2023-10-13T16:56:09.979Z,21.50
2023-10-13T16:58:36.585Z,21.50
2023-10-13T17:01:10.091Z,21.50
2023-10-13T17:03:41.037Z,21.50
2023-10-13T17:06:10.612Z,21.40
2023-10-13T17:08:37.696Z,21.30
2023-10-13T17:11:15.346Z,21.30
2023-10-13T17:13:43.990Z,21.20
2023-10-13T17:16:21.202Z,21.10
2023-10-13T17:18:49.790Z,21.10
2023-10-13T17:21:22.898Z,21.00
2023-10-13T17:23:53.705Z,20.90
2023-10-13T17:26:23.895Z,20.80
2023-10-13T17:28:51.064Z,20.80
2023-10-13T17:31:17.968Z,20.80
2023-10-13T17:33:46.774Z,20.80
2023-10-13T17:36:13.433Z,20.70
2023-10-13T17:38:40.372Z,20.70
2023-10-13T17:41:11.885Z,20.70
2023-10-13T17:43:38.910Z,20.60
2023-10-13T17:46:09.484Z,20.60
2023-10-13T17:48:37.241Z,20.60
2023-10-13T17:51:11.429Z,20.60
2023-10-13T17:53:39.213Z,20.50
2023-10-13T17:56:14.071Z,20.50
2023-10-13T17:58:44.484Z,20.50
2023-10-13T18:01:20.115Z,20.50
2023-10-13T18:03:50.031Z,20.50
2023-10-13T18:06:17.576Z,20.50
2023-10-13T18:08:44.955Z,20.50
2023-10-13T18:11:14.795Z,20.50
2023-10-13T18:13:43.152Z,20.50
2023-10-13T18:16:15.259Z,20.40
2023-10-13T18:18:43.101Z,20.40
2023-10-13T18:21:11.212Z,20.40
2023-10-13T18:23:41.189Z,20.50
2023-10-13T18:26:08.285Z,20.50
2023-10-13T18:28:36.946Z,20.50
2023-10-13T18:31:05.521Z,20.50
2023-10-13T18:33:35.793Z,20.50
2023-10-13T18:36:15.796Z,20.50
2023-10-13T18:38:44.416Z,20.50
2023-10-13T18:41:12.537Z,20.50
2023-10-13T18:43:46.264Z,20.50
2023-10-13T18:46:13.762Z,20.50
2023-10-13T18:48:44.655Z,20.50
2023-10-13T18:51:16.399Z,20.50
2023-10-13T18:53:45.286Z,20.50
2023-10-13T18:56:17.266Z,20.40
2023-10-13T18:58:55.006Z,20.30
2023-10-13T19:01:26.865Z,20.30
2023-10-13T19:04:00.570Z,20.20
2023-10-13T19:06:31.694Z,20.30
2023-10-13T19:08:58.916Z,20.20
2023-10-13T19:11:25.904Z,20.20
2023-10-13T19:13:53.501Z,20.30
2023-10-13T19:16:26.987Z,20.20
2023-10-13T19:19:00.176Z,20.30
2023-10-13T19:21:28.417Z,20.20
2023-10-13T19:23:55.370Z,20.20
2023-10-13T19:26:27.980Z,20.10
2023-10-13T19:28:56.570Z,20.10
2023-10-13T19:31:31.284Z,20.10
2023-10-13T19:34:05.978Z,20.20
2023-10-13T19:36:33.705Z,20.00
2023-10-13T19:39:08.882Z,19.90
2023-10-13T19:41:36.476Z,19.80
2023-10-13T19:44:04.374Z,19.80
2023-10-13T19:46:33.135Z,19.80
2023-10-13T19:49:04.414Z,19.80
2023-10-13T19:51:31.883Z,19.80
2023-10-13T19:54:06.324Z,19.70
2023-10-13T19:56:33.546Z,19.60
2023-10-13T19:59:03.724Z,19.50
2023-10-13T20:01:34.544Z,19.30
2023-10-13T20:04:02.531Z,19.30
2023-10-13T20:06:30.498Z,19.30
2023-10-13T20:09:24.357Z,19.10
2023-10-13T20:11:52.260Z,18.90
2023-10-13T20:14:22.393Z,18.80
2023-10-13T20:16:49.947Z,18.60
2023-10-13T20:19:19.443Z,18.60
2023-10-13T20:21:46.263Z,18.60
2023-10-13T20:24:14.837Z,18.60
2023-10-13T20:26:46.496Z,18.70
2023-10-13T20:29:17.747Z,18.60
2023-10-13T20:31:49.339Z,18.70
2023-10-13T20:34:20.378Z,18.80
2023-10-13T20:36:47.211Z,18.80
2023-10-13T20:39:34.264Z,18.80
2023-10-13T20:42:08.663Z,18.80
2023-10-13T20:44:38.948Z,18.80
2023-10-13T20:47:11.736Z,18.80
2023-10-13T20:49:39.725Z,18.80
2023-10-13T20:52:08.239Z,18.80
2023-10-13T20:54:35.327Z,18.70
2023-10-13T20:57:02.093Z,18.70
2023-10-13T20:59:28.858Z,18.80
2023-10-13T21:01:58.291Z,18.80
2023-10-13T21:04:25.320Z,18.80
2023-10-13T21:06:52.293Z,19.00
2023-10-13T21:09:22.337Z,19.00
2023-10-13T21:11:49.577Z,19.00
2023-10-13T21:14:16.287Z,19.00
2023-10-13T21:16:43.573Z,19.10
2023-10-13T21:19:11.038Z,19.10
2023-10-13T21:21:38.693Z,19.10
2023-10-13T21:24:10.733Z,19.10
2023-10-13T21:26:37.590Z,19.20
2023-10-13T21:29:08.810Z,19.30
2023-10-13T21:31:38.904Z,19.40
2023-10-13T21:34:08.796Z,19.40
2023-10-13T21:36:38.543Z,19.40
2023-10-13T21:39:05.795Z,19.50
2023-10-13T21:41:37.961Z,19.50
2023-10-13T21:44:05.072Z,19.60
2023-10-13T21:46:31.789Z,19.60
2023-10-13T21:49:05.626Z,19.70
2023-10-13T21:51:33.842Z,19.70
2023-10-13T21:54:00.555Z,19.80
2023-10-13T21:56:30.820Z,19.80
2023-10-13T21:58:58.299Z,19.80
2023-10-13T22:01:30.687Z,19.90
2023-10-13T22:04:10.248Z,19.90
2023-10-13T22:06:41.210Z,19.90
2023-10-13T22:09:19.467Z,19.90
2023-10-13T22:11:46.369Z,20.00
2023-10-13T22:14:17.259Z,20.00
2023-10-13T22:16:43.948Z,20.00
2023-10-13T22:19:10.812Z,20.00
2023-10-13T22:21:38.400Z,20.00
2023-10-13T22:24:05.370Z,20.10
2023-10-13T22:26:31.988Z,20.10
2023-10-13T22:28:59.115Z,20.10
2023-10-13T22:31:26.337Z,20.10
2023-10-13T22:33:54.160Z,20.10
2023-10-13T22:36:23.002Z,20.00
2023-10-13T22:38:59.263Z,20.00
2023-10-13T22:41:29.031Z,20.00
2023-10-13T22:43:55.716Z,20.00
2023-10-13T22:46:22.629Z,20.00
2023-10-13T22:48:50.366Z,20.00
2023-10-13T22:51:17.947Z,20.00
2023-10-13T22:53:47.936Z,20.00
2023-10-13T22:56:18.659Z,20.10
2023-10-13T22:58:46.117Z,20.10
2023-10-13T23:01:18.174Z,20.00
2023-10-13T23:03:56.184Z,20.00
2023-10-13T23:06:31.410Z,20.00
2023-10-13T23:09:09.624Z,20.00
2023-10-13T23:11:39.454Z,19.90
2023-10-13T23:14:06.155Z,20.00
2023-10-13T23:16:33.589Z,20.00
2023-10-13T23:19:00.387Z,19.90
2023-10-13T23:21:27.579Z,19.90
2023-10-13T23:23:55.593Z,19.90
2023-10-13T23:26:23.613Z,19.80
2023-10-13T23:28:54.461Z,19.90
2023-10-13T23:31:24.191Z,19.80
2023-10-13T23:33:51.232Z,19.80
2023-10-13T23:36:18.173Z,19.80
2023-10-13T23:39:10.053Z,19.80
2023-10-13T23:41:41.819Z,19.70
2023-10-13T23:44:14.469Z,19.70
2023-10-13T23:46:45.149Z,19.70
2023-10-13T23:49:16.737Z,19.60
2023-10-13T23:51:50.620Z,19.60
2023-10-13T23:54:20.662Z,19.50
2023-10-13T23:56:52.425Z,19.50
2023-10-13T23:59:29.008Z,19.40
